Lac Ste. Marie, Canada
Current Conditions -  °F | °C
As of 10:20 AM on Thursday 18 Dec 2014 (Local Time) from CYND Reporting Station
Overcast Overcast  
Wind Chill: -5°   Ceiling: 2300
Heat Index: -1°   Visibility: 15mi
Dew Point: -3°   Wind: 8mph
Humidity: 86%   Direction: 320°NW
Pressure: 29.95"   Gusts: NA
Location:  45.97°N, 75.93°W
Report Text: CYND 181520Z 32007KT 15SM OVC023 M01/M03 A2995 RMK SC8 SLP146
Loading
Personal Weather Stations






























Interactive Weather Map New forecast layout! Learn more

10-Day Weather Forecast

Advertisements
Track Severe Weather on mobile